sensor_id;sensor_type;location;lat;lon;timestamp;pressure;altitude;pressure_sealevel;temperature;humidity
37778;BME280;23615;51.506;7.678;2023-03-19T00:01:05;99589.47;;;10.31;89.57
37778;BME280;23615;51.506;7.678;2023-03-19T00:03:32;99590.53;;;10.30;89.65
37778;BME280;23615;51.506;7.678;2023-03-19T00:05:57;99585.44;;;10.28;89.50
37778;BME280;23615;51.506;7.678;2023-03-19T00:08:22;99586.50;;;10.27;89.50
37778;BME280;23615;51.506;7.678;2023-03-19T00:10:48;99583.81;;;10.27;89.56
37778;BME280;23615;51.506;7.678;2023-03-19T00:13:14;99593.91;;;10.25;89.65
37778;BME280;23615;51.506;7.678;2023-03-19T00:15:40;99577.53;;;10.22;89.30
37778;BME280;23615;51.506;7.678;2023-03-19T00:18:05;99593.53;;;10.22;89.37
37778;BME280;23615;51.506;7.678;2023-03-19T00:20:31;99590.31;;;10.20;89.50
37778;BME280;23615;51.506;7.678;2023-03-19T00:22:57;99594.03;;;10.19;89.16
37778;BME280;23615;51.506;7.678;2023-03-19T00:25:22;99595.25;;;10.16;89.10
37778;BME280;23615;51.506;7.678;2023-03-19T00:27:48;99593.84;;;10.13;89.11
37778;BME280;23615;51.506;7.678;2023-03-19T00:30:13;99594.09;;;10.12;89.38
37778;BME280;23615;51.506;7.678;2023-03-19T00:32:39;99584.72;;;10.09;89.71
37778;BME280;23615;51.506;7.678;2023-03-19T00:35:05;99584.13;;;10.07;89.40
37778;BME280;23615;51.506;7.678;2023-03-19T00:37:30;99586.22;;;10.05;89.53
37778;BME280;23615;51.506;7.678;2023-03-19T00:39:56;99592.34;;;10.06;89.82
37778;BME280;23615;51.506;7.678;2023-03-19T00:42:22;99599.09;;;10.20;89.65
37778;BME280;23615;51.506;7.678;2023-03-19T00:44:47;99597.34;;;10.14;89.71
37778;BME280;23615;51.506;7.678;2023-03-19T00:47:12;99593.63;;;10.03;89.98
37778;BME280;23615;51.506;7.678;2023-03-19T00:49:37;99597.56;;;10.01;90.73
37778;BME280;23615;51.506;7.678;2023-03-19T00:52:03;99598.25;;;9.96;90.35
37778;BME280;23615;51.506;7.678;2023-03-19T00:54:28;99597.22;;;9.97;89.92
37778;BME280;23615;51.506;7.678;2023-03-19T00:56:53;99594.59;;;10.21;89.36
37778;BME280;23615;51.506;7.678;2023-03-19T00:59:19;99592.91;;;9.96;89.42
37778;BME280;23615;51.506;7.678;2023-03-19T01:01:44;99595.44;;;9.80;89.70
37778;BME280;23615;51.506;7.678;2023-03-19T01:04:09;99600.06;;;9.72;89.93
37778;BME280;23615;51.506;7.678;2023-03-19T01:06:35;99596.44;;;9.67;90.00
37778;BME280;23615;51.506;7.678;2023-03-19T01:09:00;99600.47;;;9.58;90.03
37778;BME280;23615;51.506;7.678;2023-03-19T01:11:26;99596.72;;;9.47;90.31
37778;BME280;23615;51.506;7.678;2023-03-19T01:13:51;99600.91;;;9.43;90.67
37778;BME280;23615;51.506;7.678;2023-03-19T01:16:16;99604.22;;;9.38;90.49
37778;BME280;23615;51.506;7.678;2023-03-19T01:18:42;99606.31;;;9.36;90.37
37778;BME280;23615;51.506;7.678;2023-03-19T01:21:07;99604.69;;;9.35;90.21
37778;BME280;23615;51.506;7.678;2023-03-19T01:23:32;99611.28;;;9.33;90.45
37778;BME280;23615;51.506;7.678;2023-03-19T01:25:58;99606.78;;;9.33;90.59
37778;BME280;23615;51.506;7.678;2023-03-19T01:28:23;99598.56;;;9.35;90.84
37778;BME280;23615;51.506;7.678;2023-03-19T01:30:49;99600.41;;;9.34;90.32
37778;BME280;23615;51.506;7.678;2023-03-19T01:33:14;99605.38;;;9.31;90.85
37778;BME280;23615;51.506;7.678;2023-03-19T01:35:40;99598.88;;;9.27;90.66
37778;BME280;23615;51.506;7.678;2023-03-19T01:38:07;99601.75;;;9.25;90.66
37778;BME280;23615;51.506;7.678;2023-03-19T01:40:32;99601.53;;;9.27;90.91
37778;BME280;23615;51.506;7.678;2023-03-19T01:43:21;99604.41;;;9.25;90.28
37778;BME280;23615;51.506;7.678;2023-03-19T01:45:50;99599.09;;;9.25;90.17
37778;BME280;23615;51.506;7.678;2023-03-19T01:48:36;99597.69;;;9.23;90.80
37778;BME280;23615;51.506;7.678;2023-03-19T01:51:03;99597.91;;;9.21;90.40
37778;BME280;23615;51.506;7.678;2023-03-19T01:53:32;99594.91;;;9.18;90.78
37778;BME280;23615;51.506;7.678;2023-03-19T01:56:26;99599.84;;;9.14;90.81
37778;BME280;23615;51.506;7.678;2023-03-19T01:58:59;99589.22;;;9.14;89.95
37778;BME280;23615;51.506;7.678;2023-03-19T02:01:27;99590.25;;;9.13;90.82
37778;BME280;23615;51.506;7.678;2023-03-19T02:03:54;99588.63;;;9.12;90.25
37778;BME280;23615;51.506;7.678;2023-03-19T02:06:20;99590.47;;;9.12;90.69
37778;BME280;23615;51.506;7.678;2023-03-19T02:08:47;99582.72;;;9.10;90.97
37778;BME280;23615;51.506;7.678;2023-03-19T02:11:13;99586.41;;;9.09;91.28
37778;BME280;23615;51.506;7.678;2023-03-19T02:13:39;99586.16;;;9.11;90.77
37778;BME280;23615;51.506;7.678;2023-03-19T02:16:06;99588.63;;;9.12;91.02
37778;BME280;23615;51.506;7.678;2023-03-19T02:18:31;99591.28;;;9.12;90.54
37778;BME280;23615;51.506;7.678;2023-03-19T02:21:05;99587.56;;;9.13;91.37
37778;BME280;23615;51.506;7.678;2023-03-19T02:23:54;99590.72;;;9.10;91.22
37778;BME280;23615;51.506;7.678;2023-03-19T02:26:25;99582.94;;;9.09;90.93
37778;BME280;23615;51.506;7.678;2023-03-19T02:28:53;99586.84;;;9.06;90.84
37778;BME280;23615;51.506;7.678;2023-03-19T02:31:19;99584.41;;;9.05;91.27
37778;BME280;23615;51.506;7.678;2023-03-19T02:33:59;99592.84;;;9.01;91.32
37778;BME280;23615;51.506;7.678;2023-03-19T02:36:32;99582.78;;;9.04;91.51
37778;BME280;23615;51.506;7.678;2023-03-19T02:39:01;99586.47;;;9.02;91.33
37778;BME280;23615;51.506;7.678;2023-03-19T02:41:28;99582.78;;;9.04;91.46
37778;BME280;23615;51.506;7.678;2023-03-19T02:43:57;99582.78;;;9.04;91.96
37778;BME280;23615;51.506;7.678;2023-03-19T02:46:23;99588.09;;;9.04;91.77
37778;BME280;23615;51.506;7.678;2023-03-19T02:48:49;99587.91;;;9.05;92.05
37778;BME280;23615;51.506;7.678;2023-03-19T02:51:14;99589.75;;;9.05;91.98
37778;BME280;23615;51.506;7.678;2023-03-19T02:53:39;99587.44;;;9.08;92.03
37778;BME280;23615;51.506;7.678;2023-03-19T02:56:05;99581.09;;;9.09;91.77
37778;BME280;23615;51.506;7.678;2023-03-19T02:58:30;99581.44;;;9.13;91.67
37778;BME280;23615;51.506;7.678;2023-03-19T03:00:56;99584.09;;;9.13;92.25
37778;BME280;23615;51.506;7.678;2023-03-19T03:03:21;99581.44;;;9.13;91.77
37778;BME280;23615;51.506;7.678;2023-03-19T03:05:46;99575.31;;;9.12;92.10
37778;BME280;23615;51.506;7.678;2023-03-19T03:08:12;99578.19;;;9.11;92.63
37778;BME280;23615;51.506;7.678;2023-03-19T03:10:37;99583.06;;;9.14;91.89
37778;BME280;23615;51.506;7.678;2023-03-19T03:13:02;99576.34;;;9.11;92.00
37778;BME280;23615;51.506;7.678;2023-03-19T03:15:29;99578.44;;;9.09;92.40
37778;BME280;23615;51.506;7.678;2023-03-19T03:17:54;99577.03;;;9.07;92.12
37778;BME280;23615;51.506;7.678;2023-03-19T03:20:21;99577.03;;;9.07;92.25
37778;BME280;23615;51.506;7.678;2023-03-19T03:22:46;99582.56;;;9.05;92.16
37778;BME280;23615;51.506;7.678;2023-03-19T03:25:13;99585.22;;;9.05;92.28
37778;BME280;23615;51.506;7.678;2023-03-19T03:27:38;99582.56;;;9.05;92.58
37778;BME280;23615;51.506;7.678;2023-03-19T03:30:05;99585.00;;;9.07;92.58
37778;BME280;23615;51.506;7.678;2023-03-19T03:32:32;99587.91;;;9.05;93.09
37778;BME280;23615;51.506;7.678;2023-03-19T03:34:58;99585.44;;;9.04;93.02
37778;BME280;23615;51.506;7.678;2023-03-19T03:37:23;99588.09;;;9.04;93.26
37778;BME280;23615;51.506;7.678;2023-03-19T03:39:48;99585.91;;;9.00;92.69
37778;BME280;23615;51.506;7.678;2023-03-19T03:42:14;99586.94;;;8.99;92.91
37778;BME280;23615;51.506;7.678;2023-03-19T03:44:39;99589.59;;;8.99;92.80
37778;BME280;23615;51.506;7.678;2023-03-19T03:47:04;99584.50;;;8.98;92.67
37778;BME280;23615;51.506;7.678;2023-03-19T03:49:30;99583.69;;;8.97;93.01
37778;BME280;23615;51.506;7.678;2023-03-19T03:51:56;99580.22;;;8.97;92.66
37778;BME280;23615;51.506;7.678;2023-03-19T03:54:21;99589.22;;;8.96;92.88
37778;BME280;23615;51.506;7.678;2023-03-19T03:56:46;99585.53;;;8.97;93.42
37778;BME280;23615;51.506;7.678;2023-03-19T03:59:14;99589.84;;;8.98;93.34
37778;BME280;23615;51.506;7.678;2023-03-19T04:01:39;99587.75;;;9.00;93.74
37778;BME280;23615;51.506;7.678;2023-03-19T04:04:04;99596.31;;;9.02;93.10
37778;BME280;23615;51.506;7.678;2023-03-19T04:06:30;99589.97;;;9.03;93.38
37778;BME280;23615;51.506;7.678;2023-03-19T04:08:55;99594.03;;;9.06;93.69
37778;BME280;23615;51.506;7.678;2023-03-19T04:11:20;99591.75;;;9.09;94.00
37778;BME280;23615;51.506;7.678;2023-03-19T04:13:45;99584.56;;;9.10;93.32
37778;BME280;23615;51.506;7.678;2023-03-19T04:16:11;99599.03;;;9.14;93.66
37778;BME280;23615;51.506;7.678;2023-03-19T04:18:37;99585.72;;;9.14;93.49
37778;BME280;23615;51.506;7.678;2023-03-19T04:21:05;99588.19;;;9.15;93.56
37778;BME280;23615;51.506;7.678;2023-03-19T04:23:31;99589.81;;;9.16;94.08
37778;BME280;23615;51.506;7.678;2023-03-19T04:25:58;99585.88;;;9.19;93.74
37778;BME280;23615;51.506;7.678;2023-03-19T04:28:24;99590.97;;;9.20;93.89
37778;BME280;23615;51.506;7.678;2023-03-19T04:30:49;99601.16;;;9.23;94.57
37778;BME280;23615;51.506;7.678;2023-03-19T04:33:15;99592.16;;;9.24;93.84
37778;BME280;23615;51.506;7.678;2023-03-19T04:35:41;99593.78;;;9.25;94.20
37778;BME280;23615;51.506;7.678;2023-03-19T04:38:06;99592.75;;;9.26;94.14
37778;BME280;23615;51.506;7.678;2023-03-19T04:40:32;99599.44;;;9.29;93.97
37778;BME280;23615;51.506;7.678;2023-03-19T04:42:57;99603.50;;;9.31;94.45
37778;BME280;23615;51.506;7.678;2023-03-19T04:45:22;99592.88;;;9.31;94.10
37778;BME280;23615;51.506;7.678;2023-03-19T04:47:47;99594.50;;;9.32;93.80
37778;BME280;23615;51.506;7.678;2023-03-19T04:50:13;99596.72;;;9.35;93.84
37778;BME280;23615;51.506;7.678;2023-03-19T04:52:39;99605.72;;;9.34;93.57
37778;BME280;23615;51.506;7.678;2023-03-19T04:55:06;99617.78;;;9.37;93.73
37778;BME280;23615;51.506;7.678;2023-03-19T04:57:32;99614.31;;;9.36;93.63
37778;BME280;23615;51.506;7.678;2023-03-19T04:59:58;99620.44;;;9.37;93.99
37778;BME280;23615;51.506;7.678;2023-03-19T05:02:24;99616.97;;;9.36;93.83
37778;BME280;23615;51.506;7.678;2023-03-19T05:04:50;99621.00;;;9.39;94.53
37778;BME280;23615;51.506;7.678;2023-03-19T05:07:15;99619.97;;;9.40;94.04
37778;BME280;23615;51.506;7.678;2023-03-19T05:09:41;99624.50;;;9.39;94.65
37778;BME280;23615;51.506;7.678;2023-03-19T05:12:08;99634.09;;;9.41;94.18
37778;BME280;23615;51.506;7.678;2023-03-19T05:14:34;99635.16;;;9.39;94.31
37778;BME280;23615;51.506;7.678;2023-03-19T05:16:59;99639.44;;;9.41;94.42
37778;BME280;23615;51.506;7.678;2023-03-19T05:19:24;99642.09;;;9.41;93.85
37778;BME280;23615;51.506;7.678;2023-03-19T05:21:50;99631.44;;;9.41;94.09
37778;BME280;23615;51.506;7.678;2023-03-19T05:24:15;99634.09;;;9.41;94.55
37778;BME280;23615;51.506;7.678;2023-03-19T05:26:40;99641.88;;;9.42;93.87
37778;BME280;23615;51.506;7.678;2023-03-19T05:29:06;99645.34;;;9.43;94.15
37778;BME280;23615;51.506;7.678;2023-03-19T05:31:35;99637.00;;;9.39;94.49
37778;BME280;23615;51.506;7.678;2023-03-19T05:34:00;99638.63;;;9.40;95.52
37778;BME280;23615;51.506;7.678;2023-03-19T05:36:25;99645.72;;;9.46;95.18
37778;BME280;23615;51.506;7.678;2023-03-19T05:38:52;99641.78;;;9.49;96.09
37778;BME280;23615;51.506;7.678;2023-03-19T05:41:17;99644.94;;;9.57;95.81
37778;BME280;23615;51.506;7.678;2023-03-19T05:43:42;99649.41;;;9.45;95.87
37778;BME280;23615;51.506;7.678;2023-03-19T05:46:07;99651.28;;;9.45;95.97
37778;BME280;23615;51.506;7.678;2023-03-19T05:48:33;99653.47;;;9.48;95.87
37778;BME280;23615;51.506;7.678;2023-03-19T05:50:58;99660.06;;;9.75;95.26
37778;BME280;23615;51.506;7.678;2023-03-19T05:53:23;99662.66;;;9.82;94.20
37778;BME280;23615;51.506;7.678;2023-03-19T05:55:49;99660.16;;;9.68;94.76
37778;BME280;23615;51.506;7.678;2023-03-19T05:58:14;99659.22;;;9.63;95.27
37778;BME280;23615;51.506;7.678;2023-03-19T06:00:41;99657.16;;;9.65;95.38
37778;BME280;23615;51.506;7.678;2023-03-19T06:03:06;99650.31;;;9.69;94.43
37778;BME280;23615;51.506;7.678;2023-03-19T06:05:32;99658.19;;;9.75;95.00
37778;BME280;23615;51.506;7.678;2023-03-19T06:07:57;99660.38;;;9.67;94.28
37778;BME280;23615;51.506;7.678;2023-03-19T06:10:22;99670.75;;;9.57;94.21
37778;BME280;23615;51.506;7.678;2023-03-19T06:12:48;99669.06;;;9.62;94.40
37778;BME280;23615;51.506;7.678;2023-03-19T06:15:13;99667.81;;;9.65;94.23
37778;BME280;23615;51.506;7.678;2023-03-19T06:17:38;99667.88;;;9.58;94.73
37778;BME280;23615;51.506;7.678;2023-03-19T06:20:04;99668.09;;;9.57;94.88
37778;BME280;23615;51.506;7.678;2023-03-19T06:22:29;99677.28;;;9.61;94.26
37778;BME280;23615;51.506;7.678;2023-03-19T06:24:55;99669.88;;;9.63;94.54
37778;BME280;23615;51.506;7.678;2023-03-19T06:27:20;99669.41;;;9.66;94.49
37778;BME280;23615;51.506;7.678;2023-03-19T06:29:45;99669.88;;;9.63;94.32
37778;BME280;23615;51.506;7.678;2023-03-19T06:32:11;99672.88;;;9.66;94.41
37778;BME280;23615;51.506;7.678;2023-03-19T06:34:36;99676.63;;;9.77;94.63
37778;BME280;23615;51.506;7.678;2023-03-19T06:37:02;99687.44;;;9.82;95.00
37778;BME280;23615;51.506;7.678;2023-03-19T06:39:27;99688.81;;;9.85;94.99
37778;BME280;23615;51.506;7.678;2023-03-19T06:41:52;99684.81;;;10.05;94.46
37778;BME280;23615;51.506;7.678;2023-03-19T06:44:18;99677.53;;;10.12;93.83
37778;BME280;23615;51.506;7.678;2023-03-19T06:46:43;99686.81;;;10.10;93.82
37778;BME280;23615;51.506;7.678;2023-03-19T06:49:09;99692.22;;;10.03;94.79
37778;BME280;23615;51.506;7.678;2023-03-19T06:51:34;99686.34;;;10.13;94.77
37778;BME280;23615;51.506;7.678;2023-03-19T06:54:00;99695.09;;;10.32;94.83
37778;BME280;23615;51.506;7.678;2023-03-19T06:56:25;99691.84;;;10.30;94.20
37778;BME280;23615;51.506;7.678;2023-03-19T06:58:51;99692.19;;;10.22;94.34
37778;BME280;23615;51.506;7.678;2023-03-19T07:01:16;99697.19;;;10.30;94.20
37778;BME280;23615;51.506;7.678;2023-03-19T07:03:41;99701.94;;;10.39;93.44
37778;BME280;23615;51.506;7.678;2023-03-19T07:06:07;99697.91;;;10.37;94.28
37778;BME280;23615;51.506;7.678;2023-03-19T07:08:32;99700.47;;;10.43;94.27
37778;BME280;23615;51.506;7.678;2023-03-19T07:11:05;99703.00;;;10.50;93.78
37778;BME280;23615;51.506;7.678;2023-03-19T07:13:31;99713.44;;;10.52;93.90
37778;BME280;23615;51.506;7.678;2023-03-19T07:15:58;99713.91;;;10.60;93.43
37778;BME280;23615;51.506;7.678;2023-03-19T07:18:24;99724.25;;;10.80;92.87
37778;BME280;23615;51.506;7.678;2023-03-19T07:20:49;99719.72;;;10.69;93.16
37778;BME280;23615;51.506;7.678;2023-03-19T07:23:15;99721.00;;;10.90;93.23
37778;BME280;23615;51.506;7.678;2023-03-19T07:25:40;99723.19;;;11.16;91.93
37778;BME280;23615;51.506;7.678;2023-03-19T07:28:05;99731.09;;;10.99;93.24
37778;BME280;23615;51.506;7.678;2023-03-19T07:30:31;99728.53;;;11.04;93.62
37778;BME280;23615;51.506;7.678;2023-03-19T07:32:57;99727.50;;;11.05;93.21
37778;BME280;23615;51.506;7.678;2023-03-19T07:35:22;99731.19;;;11.04;94.05
37778;BME280;23615;51.506;7.678;2023-03-19T07:37:47;99730.16;;;11.05;94.40
37778;BME280;23615;51.506;7.678;2023-03-19T07:40:13;99734.53;;;11.23;93.11
37778;BME280;23615;51.506;7.678;2023-03-19T07:42:38;99733.50;;;11.12;94.25
37778;BME280;23615;51.506;7.678;2023-03-19T07:45:04;99731.78;;;11.18;94.25
37778;BME280;23615;51.506;7.678;2023-03-19T07:47:30;99737.66;;;11.32;93.95
37778;BME280;23615;51.506;7.678;2023-03-19T07:49:56;99738.34;;;11.39;93.54
37778;BME280;23615;51.506;7.678;2023-03-19T07:52:23;99741.28;;;11.37;93.91
37778;BME280;23615;51.506;7.678;2023-03-19T07:54:48;99739.00;;;11.57;93.07
37778;BME280;23615;51.506;7.678;2023-03-19T07:57:14;99744.13;;;11.47;93.67
37778;BME280;23615;51.506;7.678;2023-03-19T07:59:40;99740.44;;;11.88;91.38
37778;BME280;23615;51.506;7.678;2023-03-19T08:02:06;99746.25;;;11.85;90.46
37778;BME280;23615;51.506;7.678;2023-03-19T08:04:31;99752.09;;;11.82;90.84
37778;BME280;23615;51.506;7.678;2023-03-19T08:06:56;99751.97;;;11.77;91.49
37778;BME280;23615;51.506;7.678;2023-03-19T08:09:22;99749.31;;;11.77;91.18
37778;BME280;23615;51.506;7.678;2023-03-19T08:11:47;99751.06;;;11.72;91.62
37778;BME280;23615;51.506;7.678;2023-03-19T08:14:12;99752.31;;;11.81;91.87
37778;BME280;23615;51.506;7.678;2023-03-19T08:16:38;99746.69;;;11.94;90.30
37778;BME280;23615;51.506;7.678;2023-03-19T08:19:03;99751.75;;;12.07;89.77
37778;BME280;23615;51.506;7.678;2023-03-19T08:21:28;99748.41;;;12.00;90.32
37778;BME280;23615;51.506;7.678;2023-03-19T08:23:53;99753.63;;;12.07;89.47
37778;BME280;23615;51.506;7.678;2023-03-19T08:26:19;99757.13;;;12.24;89.42
37778;BME280;23615;51.506;7.678;2023-03-19T08:28:44;99762.63;;;12.17;89.88
37778;BME280;23615;51.506;7.678;2023-03-19T08:31:11;99755.09;;;12.14;89.76
37778;BME280;23615;51.506;7.678;2023-03-19T08:33:37;99755.44;;;12.18;89.25
37778;BME280;23615;51.506;7.678;2023-03-19T08:36:05;99759.09;;;12.28;89.01
37778;BME280;23615;51.506;7.678;2023-03-19T08:38:31;99763.06;;;12.43;87.95
37778;BME280;23615;51.506;7.678;2023-03-19T08:40:56;99762.66;;;12.34;88.29
37778;BME280;23615;51.506;7.678;2023-03-19T08:43:26;99762.94;;;12.21;88.91
37778;BME280;23615;51.506;7.678;2023-03-19T08:45:51;99763.91;;;12.15;88.94
37778;BME280;23615;51.506;7.678;2023-03-19T08:48:17;99759.66;;;12.02;89.89
37778;BME280;23615;51.506;7.678;2023-03-19T08:50:42;99761.03;;;12.33;88.42
37778;BME280;23615;51.506;7.678;2023-03-19T08:53:07;99775.03;;;12.23;87.78
37778;BME280;23615;51.506;7.678;2023-03-19T08:55:32;99775.69;;;12.30;88.21
37778;BME280;23615;51.506;7.678;2023-03-19T08:57:58;99780.06;;;12.20;88.41
37778;BME280;23615;51.506;7.678;2023-03-19T09:00:23;99784.63;;;12.36;88.29
37778;BME280;23615;51.506;7.678;2023-03-19T09:02:48;99793.56;;;12.42;88.38
37778;BME280;23615;51.506;7.678;2023-03-19T09:05:14;99783.00;;;12.35;89.11
37778;BME280;23615;51.506;7.678;2023-03-19T09:07:39;99782.78;;;12.36;89.02
37778;BME280;23615;51.506;7.678;2023-03-19T09:10:05;99782.44;;;12.50;88.67
37778;BME280;23615;51.506;7.678;2023-03-19T09:12:30;99790.56;;;12.38;88.08
37778;BME280;23615;51.506;7.678;2023-03-19T09:14:56;99787.00;;;12.49;87.48
37778;BME280;23615;51.506;7.678;2023-03-19T09:17:22;99793.34;;;12.60;86.57
37778;BME280;23615;51.506;7.678;2023-03-19T09:19:47;99787.91;;;12.38;88.43
37778;BME280;23615;51.506;7.678;2023-03-19T09:22:12;99791.56;;;12.82;87.70
37778;BME280;23615;51.506;7.678;2023-03-19T09:24:38;99794.63;;;13.07;85.31
37778;BME280;23615;51.506;7.678;2023-03-19T09:27:03;99798.03;;;13.03;85.42
37778;BME280;23615;51.506;7.678;2023-03-19T09:29:28;99797.50;;;13.18;85.56
37778;BME280;23615;51.506;7.678;2023-03-19T09:31:54;99810.38;;;13.21;85.75
37778;BME280;23615;51.506;7.678;2023-03-19T09:34:19;99802.81;;;13.34;85.09
37778;BME280;23615;51.506;7.678;2023-03-19T09:36:45;99808.09;;;13.46;84.75
37778;BME280;23615;51.506;7.678;2023-03-19T09:39:10;99810.19;;;13.44;84.59
37778;BME280;23615;51.506;7.678;2023-03-19T09:41:56;99806.94;;;13.42;84.71
37778;BME280;23615;51.506;7.678;2023-03-19T09:44:36;99805.25;;;13.36;86.31
37778;BME280;23615;51.506;7.678;2023-03-19T09:47:32;99815.59;;;13.49;85.35
37778;BME280;23615;51.506;7.678;2023-03-19T09:49:59;99813.44;;;13.68;83.45
37778;BME280;23615;51.506;7.678;2023-03-19T09:52:59;99814.69;;;13.60;83.35
37778;BME280;23615;51.506;7.678;2023-03-19T09:57:53;99810.47;;;13.64;85.35
37778;BME280;23615;51.506;7.678;2023-03-19T10:00:22;99823.06;;;13.85;83.59
37778;BME280;23615;51.506;7.678;2023-03-19T10:02:56;99821.13;;;13.81;84.15
37778;BME280;23615;51.506;7.678;2023-03-19T10:05:43;99817.63;;;13.59;84.04
37778;BME280;23615;51.506;7.678;2023-03-19T10:08:29;99816.84;;;13.41;86.89
37778;BME280;23615;51.506;7.678;2023-03-19T10:16:29;99824.09;;;13.84;83.74
37778;BME280;23615;51.506;7.678;2023-03-19T10:18:58;99817.03;;;13.73;85.47
37778;BME280;23615;51.506;7.678;2023-03-19T10:21:44;99825.69;;;13.80;83.83
37778;BME280;23615;51.506;7.678;2023-03-19T10:24:26;99817.69;;;13.85;83.60
37778;BME280;23615;51.506;7.678;2023-03-19T10:27:00;99818.69;;;14.01;84.10
37778;BME280;23615;51.506;7.678;2023-03-19T10:29:27;99814.84;;;13.92;84.54
37778;BME280;23615;51.506;7.678;2023-03-19T10:31:57;99819.19;;;13.98;83.22
37778;BME280;23615;51.506;7.678;2023-03-19T10:34:33;99818.56;;;13.91;82.71
37778;BME280;23615;51.506;7.678;2023-03-19T10:37:27;99828.34;;;14.02;82.71
37778;BME280;23615;51.506;7.678;2023-03-19T10:39:57;99823.69;;;13.93;83.61
37778;BME280;23615;51.506;7.678;2023-03-19T10:45:28;99822.06;;;13.92;84.89
37778;BME280;23615;51.506;7.678;2023-03-19T10:47:59;99824.22;;;13.95;85.25
37778;BME280;23615;51.506;7.678;2023-03-19T10:50:31;99823.13;;;13.91;85.80
37778;BME280;23615;51.506;7.678;2023-03-19T10:53:34;99836.94;;;14.26;83.46
37778;BME280;23615;51.506;7.678;2023-03-19T10:59:05;99824.03;;;14.23;83.27
37778;BME280;23615;51.506;7.678;2023-03-19T11:01:37;99826.66;;;14.18;82.61
37778;BME280;23615;51.506;7.678;2023-03-19T11:04:22;99823.41;;;14.16;83.40
37778;BME280;23615;51.506;7.678;2023-03-19T11:06:52;99828.47;;;14.12;84.15
37778;BME280;23615;51.506;7.678;2023-03-19T11:09:41;99829.38;;;14.23;83.51
37778;BME280;23615;51.506;7.678;2023-03-19T11:12:31;99833.38;;;14.42;80.15
37778;BME280;23615;51.506;7.678;2023-03-19T11:14:58;99830.94;;;14.41;80.16
37778;BME280;23615;51.506;7.678;2023-03-19T11:17:39;99830.41;;;14.17;81.67
37778;BME280;23615;51.506;7.678;2023-03-19T11:20:37;99828.75;;;14.38;80.77
37778;BME280;23615;51.506;7.678;2023-03-19T11:23:11;99833.56;;;14.36;82.75
37778;BME280;23615;51.506;7.678;2023-03-19T11:25:40;99826.91;;;14.65;80.76
37778;BME280;23615;51.506;7.678;2023-03-19T11:28:07;99830.53;;;14.81;79.95
37778;BME280;23615;51.506;7.678;2023-03-19T11:33:21;99827.56;;;15.14;81.53
37778;BME280;23615;51.506;7.678;2023-03-19T11:36:07;99830.69;;;15.43;78.88
37778;BME280;23615;51.506;7.678;2023-03-19T11:39:36;99828.75;;;14.91;79.51
37778;BME280;23615;51.506;7.678;2023-03-19T11:50:17;99826.38;;;15.00;81.17
37778;BME280;23615;51.506;7.678;2023-03-19T11:55:40;99821.66;;;15.17;78.82
37778;BME280;23615;51.506;7.678;2023-03-19T12:00:54;99824.75;;;14.99;77.61
37778;BME280;23615;51.506;7.678;2023-03-19T12:03:34;99819.34;;;14.94;77.98
37778;BME280;23615;51.506;7.678;2023-03-19T12:06:31;99819.81;;;14.86;77.90
37778;BME280;23615;51.506;7.678;2023-03-19T12:09:27;99819.78;;;14.81;78.96
37778;BME280;23615;51.506;7.678;2023-03-19T12:12:05;99813.72;;;14.37;80.38
37778;BME280;23615;51.506;7.678;2023-03-19T12:15:00;99814.69;;;14.52;79.90
37778;BME280;23615;51.506;7.678;2023-03-19T12:17:57;99818.91;;;14.43;80.33
37778;BME280;23615;51.506;7.678;2023-03-19T12:20:35;99816.50;;;14.20;81.78
37778;BME280;23615;51.506;7.678;2023-03-19T12:25:48;99818.63;;;14.72;78.30
37778;BME280;23615;51.506;7.678;2023-03-19T12:28:18;99816.03;;;14.82;78.66
37778;BME280;23615;51.506;7.678;2023-03-19T12:33:48;99822.81;;;14.89;78.18
37778;BME280;23615;51.506;7.678;2023-03-19T12:36:22;99814.91;;;15.10;78.61
37778;BME280;23615;51.506;7.678;2023-03-19T12:38:54;99813.13;;;15.30;77.32
37778;BME280;23615;51.506;7.678;2023-03-19T12:41:26;99816.88;;;15.24;76.77
37778;BME280;23615;51.506;7.678;2023-03-19T12:44:03;99804.25;;;15.30;75.86
37778;BME280;23615;51.506;7.678;2023-03-19T12:51:55;99805.09;;;15.78;74.81
37778;BME280;23615;51.506;7.678;2023-03-19T12:54:32;99807.53;;;15.79;74.94
37778;BME280;23615;51.506;7.678;2023-03-19T12:57:09;99804.47;;;15.60;75.76
37778;BME280;23615;51.506;7.678;2023-03-19T12:59:44;99809.38;;;15.74;72.99
37778;BME280;23615;51.506;7.678;2023-03-19T13:02:32;99819.09;;;15.75;74.84
37778;BME280;23615;51.506;7.678;2023-03-19T13:05:16;99810.72;;;15.71;75.09
37778;BME280;23615;51.506;7.678;2023-03-19T13:08:51;99816.56;;;15.58;75.13
37778;BME280;23615;51.506;7.678;2023-03-19T13:10:52;99809.22;;;16.00;74.93
37778;BME280;23615;51.506;7.678;2023-03-19T13:13:35;99815.69;;;16.04;72.53
37778;BME280;23615;51.506;7.678;2023-03-19T13:19:22;99818.91;;;16.06;71.09
37778;BME280;23615;51.506;7.678;2023-03-19T13:21:52;99819.47;;;16.08;72.87
37778;BME280;23615;51.506;7.678;2023-03-19T13:24:31;99833.84;;;15.72;75.84
37778;BME280;23615;51.506;7.678;2023-03-19T13:26:59;99831.16;;;15.30;76.90
37778;BME280;23615;51.506;7.678;2023-03-19T13:29:30;99821.69;;;15.22;77.51
37778;BME280;23615;51.506;7.678;2023-03-19T13:32:26;99835.78;;;14.66;78.03
37778;BME280;23615;51.506;7.678;2023-03-19T13:34:45;99823.50;;;14.48;78.16
37778;BME280;23615;51.506;7.678;2023-03-19T13:37:14;99831.81;;;14.24;78.72
37778;BME280;23615;51.506;7.678;2023-03-19T13:39:41;99825.41;;;14.04;78.01
37778;BME280;23615;51.506;7.678;2023-03-19T13:42:37;99823.25;;;14.01;79.00
37778;BME280;23615;51.506;7.678;2023-03-19T13:45:29;99826.44;;;13.98;79.16
37778;BME280;23615;51.506;7.678;2023-03-19T13:49:00;99818.13;;;13.99;78.23
37778;BME280;23615;51.506;7.678;2023-03-19T13:56:28;99821.22;;;13.47;81.53
37778;BME280;23615;51.506;7.678;2023-03-19T13:59:29;99825.66;;;13.59;82.76
37778;BME280;23615;51.506;7.678;2023-03-19T14:01:56;99823.09;;;13.47;82.27
37778;BME280;23615;51.506;7.678;2023-03-19T14:04:24;99826.03;;;13.67;82.85
37778;BME280;23615;51.506;7.678;2023-03-19T14:06:57;99822.50;;;13.62;82.52